Time;durP1;ratioP1;P1;durP2;ratioP2;P2;SDS_P1;SDS_P2;PMS_P1;PMS_P2;Temp;Humidity;BMP_temperature;BMP_pressure;BME280_temperature;BME280_humidity;BME280_pressure;Samples;Min_cycle;Max_cycle;Signal;HPM_P1;HPM_P2
2023/02/12 00:00:09;;;;;;;23.27;8.18;;;10.30;99.90;;;;;;5073890;28;20358;-74
2023/02/12 00:02:35;;;;;;;20.98;7.85;;;10.20;99.90;;;;;;5073407;28;20036;-74
2023/02/12 00:05:00;;;;;;;18.77;7.95;;;10.20;99.90;;;;;;5073593;28;20032;-73
2023/02/12 00:07:30;;;;;;;26.98;7.95;;;10.20;99.90;;;;;;5073069;28;20032;-73
2023/02/12 00:09:55;;;;;;;18.13;7.40;;;10.20;99.90;;;;;;5073666;28;20046;-73
2023/02/12 00:12:21;;;;;;;24.40;7.70;;;10.30;99.90;;;;;;5073545;28;20033;-74
2023/02/12 00:14:47;;;;;;;18.20;7.65;;;10.10;99.90;;;;;;5073490;28;20040;-73
2023/02/12 00:17:12;;;;;;;21.65;6.90;;;10.20;99.90;;;;;;5073855;28;20036;-74
2023/02/12 00:19:38;;;;;;;25.52;8.88;;;10.20;99.90;;;;;;5072342;28;20462;-73
2023/02/12 00:22:03;;;;;;;22.70;7.88;;;10.30;99.90;;;;;;5072741;28;20031;-73
2023/02/12 00:24:29;;;;;;;23.08;7.32;;;10.40;99.90;;;;;;5073487;28;20062;-74
2023/02/12 00:26:55;;;;;;;27.92;6.97;;;10.20;99.90;;;;;;5073095;28;20044;-73
2023/02/12 00:29:20;;;;;;;21.83;8.05;;;10.10;99.90;;;;;;5071598;28;20046;-74
2023/02/12 00:31:46;;;;;;;18.85;7.20;;;10.10;99.90;;;;;;5073051;28;20020;-74
2023/02/12 00:34:12;;;;;;;22.13;7.85;;;10.10;99.90;;;;;;5072533;28;20123;-74
2023/02/12 00:36:37;;;;;;;19.17;6.95;;;10.10;99.90;;;;;;5073191;28;20161;-74
2023/02/12 00:39:03;;;;;;;20.42;6.65;;;10.30;99.90;;;;;;5073051;28;20097;-75
2023/02/12 00:41:29;;;;;;;26.02;8.93;;;10.00;99.90;;;;;;5073132;28;20037;-74
2023/02/12 00:43:55;;;;;;;20.65;6.72;;;10.10;99.90;;;;;;5071933;28;20293;-74
2023/02/12 00:46:21;;;;;;;21.23;6.75;;;10.00;99.90;;;;;;5073455;28;20378;-74
2023/02/12 00:48:47;;;;;;;21.10;7.18;;;10.20;99.90;;;;;;5072979;28;20033;-73
2023/02/12 00:51:13;;;;;;;17.02;7.15;;;10.10;99.90;;;;;;5072989;28;20497;-73
2023/02/12 00:53:39;;;;;;;20.67;7.05;;;10.20;99.90;;;;;;5072682;28;20040;-73
2023/02/12 00:56:05;;;;;;;17.90;7.22;;;10.20;99.90;;;;;;5072558;28;20033;-74
2023/02/12 00:58:31;;;;;;;21.08;7.05;;;10.00;99.90;;;;;;5073445;28;20465;-74
2023/02/12 01:00:56;;;;;;;15.75;6.88;;;9.90;99.90;;;;;;5072981;28;20028;-74
2023/02/12 01:03:22;;;;;;;19.38;6.88;;;10.10;99.90;;;;;;5072565;28;20035;-74
2023/02/12 01:05:48;;;;;;;16.05;7.43;;;10.00;99.90;;;;;;5072583;28;20465;-72
2023/02/12 01:08:15;;;;;;;22.33;7.70;;;9.90;99.90;;;;;;5072233;28;20036;-74
2023/02/12 01:10:42;;;;;;;19.58;7.15;;;10.10;99.90;;;;;;5072435;28;20461;-74
2023/02/12 01:13:12;;;;;;;19.48;7.72;;;10.10;99.90;;;;;;5071703;28;20032;-73
2023/02/12 01:15:39;;;;;;;18.45;7.72;;;10.00;99.90;;;;;;5070964;28;20025;-73
2023/02/12 01:18:05;;;;;;;22.63;8.23;;;9.80;99.90;;;;;;5072359;28;20533;-74
2023/02/12 01:20:30;;;;;;;21.25;7.93;;;9.90;99.90;;;;;;5072024;28;20116;-74
2023/02/12 01:22:56;;;;;;;22.77;8.35;;;10.00;99.90;;;;;;5070949;28;20025;-73
2023/02/12 01:25:21;;;;;;;26.52;8.52;;;9.90;99.90;;;;;;5072416;28;20039;-73
2023/02/12 01:27:47;;;;;;;20.75;8.45;;;9.90;99.90;;;;;;5071623;28;20417;-73
2023/02/12 01:30:14;;;;;;;25.80;9.02;;;9.80;99.90;;;;;;5071933;28;20021;-74
2023/02/12 01:32:39;;;;;;;24.67;8.27;;;9.90;99.90;;;;;;5071693;28;20037;-74
2023/02/12 01:35:06;;;;;;;20.13;7.75;;;10.00;99.90;;;;;;5070735;28;20093;-74
2023/02/12 01:37:36;;;;;;;32.95;9.27;;;9.90;99.90;;;;;;5071804;28;20056;-74
2023/02/12 01:40:03;;;;;;;20.02;8.05;;;9.90;99.90;;;;;;5071312;28;20487;-74
2023/02/12 01:42:28;;;;;;;18.35;8.00;;;9.90;99.90;;;;;;5071807;28;20605;-74
2023/02/12 01:45:29;;;;;;;19.25;8.05;;;9.90;99.90;;;;;;5071644;28;20119;-74
2023/02/12 01:47:58;;;;;;;19.75;8.40;;;9.90;99.90;;;;;;4990274;28;20049;-73
2023/02/12 01:50:24;;;;;;;24.05;8.65;;;10.00;99.90;;;;;;5056559;28;20424;-73
2023/02/12 01:52:54;;;;;;;28.90;9.13;;;10.00;99.90;;;;;;5071606;28;20028;-73
2023/02/12 01:55:21;;;;;;;27.75;8.43;;;10.10;99.90;;;;;;5071871;28;20029;-73
2023/02/12 01:57:47;;;;;;;23.88;9.50;;;10.10;99.90;;;;;;5070409;28;20024;-74
2023/02/12 02:00:17;;;;;;;26.42;8.90;;;10.10;99.90;;;;;;5071507;28;20038;-74
2023/02/12 02:02:48;;;;;;;18.10;9.30;;;9.90;99.90;;;;;;5070407;28;20032;-73
2023/02/12 02:05:21;;;;;;;19.08;8.95;;;9.90;99.90;;;;;;5071269;28;20035;-73
2023/02/12 02:07:48;;;;;;;27.52;9.20;;;9.80;99.90;;;;;;5071246;28;20530;-74
2023/02/12 02:10:13;;;;;;;22.42;8.73;;;9.80;99.90;;;;;;5071983;28;20035;-73
2023/02/12 02:15:29;;;;;;;19.45;9.75;;;9.90;99.90;;;;;;5071397;28;20505;-75
2023/02/12 02:18:19;;;;;;;25.48;9.70;;;9.80;99.90;;;;;;5071285;28;20032;-74
2023/02/12 02:21:26;;;;;;;21.95;9.45;;;9.90;99.90;;;;;;5071219;28;20033;-74
2023/02/12 02:24:17;;;;;;;21.90;10.37;;;10.10;99.90;;;;;;5071124;28;20028;-73
2023/02/12 02:27:04;;;;;;;30.63;10.88;;;10.00;99.90;;;;;;5070845;28;20301;-74
2023/02/12 02:30:05;;;;;;;22.95;9.90;;;9.90;99.90;;;;;;5071049;28;20028;-74
2023/02/12 02:32:42;;;;;;;22.17;9.40;;;9.80;99.90;;;;;;5039689;28;20524;-73
2023/02/12 02:35:15;;;;;;;24.30;9.52;;;9.90;99.90;;;;;;5069852;28;20078;-73
2023/02/12 02:38:15;;;;;;;22.83;10.10;;;9.80;99.90;;;;;;5069928;28;20025;-73
2023/02/12 02:40:56;;;;;;;25.85;9.95;;;9.70;99.90;;;;;;5016907;28;20509;-74
2023/02/12 02:43:28;;;;;;;28.83;10.20;;;9.80;99.90;;;;;;5070422;28;20033;-74
2023/02/12 02:46:00;;;;;;;33.10;10.05;;;9.70;99.90;;;;;;5069964;28;20526;-74
2023/02/12 02:48:34;;;;;;;24.85;10.05;;;9.70;99.90;;;;;;5070956;28;20032;-73
2023/02/12 02:51:22;;;;;;;34.60;10.75;;;9.60;99.90;;;;;;5071402;28;20556;-74
2023/02/12 02:53:55;;;;;;;25.27;10.07;;;9.70;99.90;;;;;;5075011;28;20052;-75
2023/02/12 02:56:23;;;;;;;27.15;10.32;;;9.80;99.90;;;;;;5074851;28;20039;-74
2023/02/12 02:58:56;;;;;;;;;;;9.70;99.90;;;;;;5075320;28;20052;-74
2023/02/12 03:01:31;;;;;;;26.75;10.65;;;9.70;99.90;;;;;;5074306;28;19904;-75
2023/02/12 03:04:03;;;;;;;19.83;9.23;;;9.80;99.90;;;;;;5074801;28;20048;-73
2023/02/12 03:06:50;;;;;;;20.50;10.35;;;9.70;99.90;;;;;;5074695;28;20047;-74
2023/02/12 03:09:44;;;;;;;23.80;10.97;;;9.80;99.90;;;;;;5074634;28;20025;-74
2023/02/12 03:12:21;;;;;;;29.15;10.52;;;9.80;99.90;;;;;;5074613;28;20139;-73
2023/02/12 03:14:53;;;;;;;27.23;12.13;;;9.80;99.90;;;;;;5074491;28;20033;-73
2023/02/12 03:17:29;;;;;;;26.20;11.50;;;9.80;99.90;;;;;;5074667;28;20046;-74
2023/02/12 03:20:00;;;;;;;27.75;11.48;;;9.90;99.90;;;;;;5074638;28;20093;-75
2023/02/12 03:22:33;;;;;;;26.63;11.73;;;9.90;99.90;;;;;;5075116;28;20103;-75
2023/02/12 03:25:12;;;;;;;26.33;11.35;;;9.80;99.90;;;;;;5074875;28;20374;-76
2023/02/12 03:27:47;;;;;;;25.15;11.32;;;9.90;99.90;;;;;;5074434;28;20052;-75
2023/02/12 03:30:13;;;;;;;21.13;11.50;;;9.90;99.90;;;;;;5074307;28;20391;-75
2023/02/12 03:32:50;;;;;;;25.70;12.82;;;9.70;99.90;;;;;;5074280;28;20391;-74
2023/02/12 03:35:28;;;;;;;27.08;11.00;;;9.70;99.90;;;;;;5074259;28;20032;-75
2023/02/12 03:37:56;;;;;;;;;;;9.60;99.90;;;;;;5073853;28;20095;-75
2023/02/12 03:40:33;;;;;;;15.43;8.30;;;9.70;99.90;;;;;;5074644;28;20011;-76
2023/02/12 03:43:07;;;;;;;16.35;7.75;;;9.60;99.90;;;;;;5073126;28;20386;-75
2023/02/12 03:46:02;;;;;;;14.73;8.05;;;9.50;99.90;;;;;;5074103;28;20419;-76
2023/02/12 03:48:39;;;;;;;18.50;7.53;;;9.50;99.90;;;;;;5072962;28;20044;-75
2023/02/12 03:51:24;;;;;;;14.55;7.90;;;9.70;99.90;;;;;;5073024;28;20059;-76
2023/02/12 03:53:50;;;;;;;18.30;8.20;;;9.60;99.90;;;;;;5073842;28;20414;-75
2023/02/12 03:56:22;;;;;;;16.90;8.40;;;9.60;99.90;;;;;;5073784;28;20097;-75
2023/02/12 03:58:48;;;;;;;16.42;7.85;;;9.50;99.90;;;;;;5072825;28;20020;-75
2023/02/12 04:01:14;;;;;;;15.10;8.65;;;9.50;99.90;;;;;;5074288;28;20029;-75
2023/02/12 04:03:40;;;;;;;18.40;8.02;;;9.60;99.90;;;;;;5071692;28;20043;-75
2023/02/12 04:06:30;;;;;;;16.02;8.63;;;9.50;99.90;;;;;;5072643;28;20029;-75
2023/02/12 04:09:04;;;;;;;15.70;9.05;;;9.50;99.90;;;;;;5073391;28;20584;-75
2023/02/12 04:11:55;;;;;;;21.42;9.05;;;9.60;99.90;;;;;;5073657;28;20037;-76
2023/02/12 04:14:48;;;;;;;15.63;9.43;;;9.70;99.90;;;;;;5073459;28;20033;-75
2023/02/12 04:17:19;;;;;;;20.05;8.75;;;9.80;99.90;;;;;;5073772;28;20075;-75
2023/02/12 04:20:14;;;;;;;18.38;8.85;;;9.90;99.90;;;;;;5073495;28;20028;-74
2023/02/12 04:22:44;;;;;;;14.15;7.82;;;10.00;99.90;;;;;;5073409;28;20036;-73
2023/02/12 04:25:38;;;;;;;18.08;8.07;;;9.90;99.90;;;;;;5073766;28;20331;-73
2023/02/12 04:28:16;;;;;;;18.88;8.00;;;10.10;99.90;;;;;;5073293;28;20106;-73
2023/02/12 04:30:46;;;;;;;;;;;10.00;99.90;;;;;;5073786;28;20094;-74
2023/02/12 04:33:18;;;;;;;15.63;7.93;;;9.90;99.90;;;;;;5073526;28;20345;-74
2023/02/12 04:36:05;;;;;;;14.88;7.88;;;9.90;99.90;;;;;;5072079;28;20368;-74
2023/02/12 04:38:40;;;;;;;19.15;8.43;;;9.70;99.90;;;;;;5074605;28;20489;-74
2023/02/12 04:41:07;;;;;;;16.60;8.52;;;9.80;99.90;;;;;;5078266;28;20040;-73
2023/02/12 04:43:35;;;;;;;19.67;8.73;;;9.90;99.90;;;;;;5074872;28;20024;-73
2023/02/12 04:46:03;;;;;;;22.52;8.90;;;9.90;99.90;;;;;;5075052;28;20073;-74
2023/02/12 04:48:29;;;;;;;16.95;9.00;;;9.90;99.90;;;;;;5077003;28;20028;-74
2023/02/12 04:50:54;;;;;;;18.65;9.27;;;10.00;99.90;;;;;;5078374;28;20100;-73
2023/02/12 04:53:20;;;;;;;18.50;9.48;;;9.90;99.90;;;;;;5075732;28;20041;-74
2023/02/12 04:55:46;;;;;;;21.98;10.85;;;9.90;99.90;;;;;;5073883;28;20500;-74
2023/02/12 04:58:12;;;;;;;18.17;10.35;;;9.90;99.90;;;;;;5073119;28;20020;-73
2023/02/12 05:00:38;;;;;;;20.20;10.57;;;9.90;99.90;;;;;;5073203;28;20123;-73
2023/02/12 05:03:04;;;;;;;21.60;11.25;;;9.90;99.90;;;;;;5073057;28;20431;-72
2023/02/12 05:05:30;;;;;;;22.73;11.13;;;10.00;99.90;;;;;;5071446;28;20039;-74
2023/02/12 05:07:56;;;;;;;21.90;10.32;;;10.00;99.90;;;;;;5072268;28;20021;-73
2023/02/12 05:10:21;;;;;;;22.20;10.52;;;10.10;99.90;;;;;;5072574;28;20435;-73
2023/02/12 05:12:47;;;;;;;25.52;12.10;;;10.10;99.90;;;;;;5072028;28;20462;-73
2023/02/12 05:15:13;;;;;;;20.63;10.90;;;10.00;99.90;;;;;;5072029;28;20107;-73
2023/02/12 05:17:38;;;;;;;22.50;11.02;;;10.10;99.90;;;;;;5072271;28;20118;-74
2023/02/12 05:20:05;;;;;;;18.77;9.82;;;10.00;99.90;;;;;;5072038;28;20478;-73
2023/02/12 05:22:31;;;;;;;20.65;9.82;;;10.00;99.90;;;;;;5072373;28;20052;-74
2023/02/12 05:24:56;;;;;;;21.30;10.10;;;10.00;99.90;;;;;;5071001;28;20111;-74
2023/02/12 05:27:22;;;;;;;22.85;10.13;;;10.10;99.90;;;;;;5071713;28;20109;-73
2023/02/12 05:29:48;;;;;;;25.77;11.60;;;9.90;99.90;;;;;;5071780;28;20115;-74
2023/02/12 05:32:13;;;;;;;22.20;10.95;;;10.00;99.90;;;;;;5070790;28;20047;-74
2023/02/12 05:34:39;;;;;;;22.02;9.93;;;9.90;99.90;;;;;;5070564;28;20032;-73
2023/02/12 05:37:05;;;;;;;20.13;10.98;;;9.90;99.90;;;;;;5071093;28;20029;-73
2023/02/12 05:39:30;;;;;;;26.58;10.50;;;9.90;99.90;;;;;;5072016;28;20024;-73
2023/02/12 05:41:56;;;;;;;23.27;11.63;;;10.00;99.90;;;;;;5070543;28;20028;-73
2023/02/12 05:44:22;;;;;;;25.25;11.13;;;9.90;99.90;;;;;;5070414;28;20053;-73
2023/02/12 05:46:47;;;;;;;25.08;11.13;;;10.00;99.90;;;;;;5071520;28;20474;-73
2023/02/12 05:49:13;;;;;;;26.85;10.70;;;9.90;99.90;;;;;;5071962;28;20020;-73
2023/02/12 05:51:39;;;;;;;24.33;10.95;;;9.90;99.90;;;;;;5071755;28;20052;-73
2023/02/12 05:54:06;;;;;;;26.13;11.25;;;9.80;99.90;;;;;;5071312;28;20037;-74
2023/02/12 05:56:34;;;;;;;24.02;11.75;;;9.90;99.90;;;;;;5071559;28;20033;-74
2023/02/12 05:59:02;;;;;;;23.83;11.40;;;9.90;99.90;;;;;;5071184;28;20031;-73
2023/02/12 06:01:33;;;;;;;24.98;11.60;;;9.80;99.90;;;;;;5071860;28;20602;-74
2023/02/12 06:04:00;;;;;;;26.13;12.07;;;9.80;99.90;;;;;;5070479;28;20037;-75
2023/02/12 06:06:27;;;;;;;27.55;12.10;;;9.90;99.90;;;;;;5071230;28;20270;-75
2023/02/12 06:08:53;;;;;;;23.42;10.80;;;9.80;99.90;;;;;;5071259;28;20047;-74
2023/02/12 06:11:19;;;;;;;27.48;12.50;;;9.70;99.90;;;;;;5071191;28;20072;-75
2023/02/12 06:13:46;;;;;;;27.77;12.20;;;9.80;99.90;;;;;;5071211;28;20020;-73
2023/02/12 06:16:23;;;;;;;27.65;12.05;;;9.70;99.90;;;;;;5070666;28;20355;-74
2023/02/12 06:18:50;;;;;;;24.45;12.10;;;9.70;99.90;;;;;;5071022;28;20132;-74
2023/02/12 06:21:17;;;;;;;28.42;12.60;;;9.80;99.90;;;;;;5071073;28;20067;-74
2023/02/12 06:23:43;;;;;;;24.92;11.82;;;9.80;99.90;;;;;;5071084;28;20483;-75
2023/02/12 06:26:09;;;;;;;28.42;13.05;;;9.90;99.90;;;;;;5070380;28;20043;-74
2023/02/12 06:28:34;;;;;;;34.67;12.95;;;9.80;99.90;;;;;;5069656;28;20136;-73
2023/02/12 06:31:00;;;;;;;26.58;12.35;;;9.70;99.90;;;;;;5071499;28;20397;-73
2023/02/12 06:33:26;;;;;;;25.42;12.65;;;9.70;99.90;;;;;;5069912;28;20037;-72
2023/02/12 06:35:52;;;;;;;27.38;12.38;;;9.60;99.90;;;;;;5070850;28;20032;-72
2023/02/12 06:38:17;;;;;;;33.22;13.45;;;9.70;99.90;;;;;;5069854;28;20025;-73
2023/02/12 06:40:43;;;;;;;26.35;12.52;;;9.80;99.90;;;;;;5069734;28;20223;-74
2023/02/12 06:43:09;;;;;;;31.30;13.55;;;9.80;99.90;;;;;;5071787;28;20163;-74
2023/02/12 06:45:35;;;;;;;28.23;12.70;;;9.80;99.90;;;;;;5071008;28;20040;-74
2023/02/12 06:48:01;;;;;;;29.95;13.70;;;9.80;99.90;;;;;;5070820;28;20039;-74
2023/02/12 06:50:28;;;;;;;25.15;12.10;;;9.80;99.90;;;;;;5070639;28;20036;-75
2023/02/12 06:52:54;;;;;;;26.75;12.35;;;9.90;99.90;;;;;;5069404;28;20040;-75
2023/02/12 06:55:19;;;;;;;25.67;12.85;;;9.90;99.90;;;;;;5071110;28;20029;-75
2023/02/12 06:57:45;;;;;;;29.25;11.65;;;9.80;99.90;;;;;;5070841;28;20117;-75
2023/02/12 07:00:11;;;;;;;28.27;12.93;;;9.80;99.90;;;;;;5070780;28;20032;-75
2023/02/12 07:02:37;;;;;;;29.48;13.45;;;9.90;99.90;;;;;;5069578;28;20028;-74
2023/02/12 07:05:03;;;;;;;30.52;13.85;;;9.90;99.90;;;;;;5069915;28;20410;-75
2023/02/12 07:07:29;;;;;;;31.65;13.57;;;9.90;99.90;;;;;;5070958;28;20024;-74
2023/02/12 07:09:58;;;;;;;28.35;14.05;;;9.90;99.90;;;;;;5070566;28;20425;-75
2023/02/12 07:12:24;;;;;;;29.75;13.75;;;9.90;99.90;;;;;;5069488;28;20029;-74
2023/02/12 07:14:49;;;;;;;31.25;14.05;;;9.90;99.90;;;;;;5070455;28;20047;-75
2023/02/12 07:17:15;;;;;;;35.88;14.20;;;10.00;99.90;;;;;;5070174;28;20047;-75
2023/02/12 07:19:40;;;;;;;34.00;14.63;;;9.90;99.90;;;;;;5070744;28;20035;-74
2023/02/12 07:22:06;;;;;;;29.88;13.25;;;9.90;99.90;;;;;;5070905;28;20020;-74
2023/02/12 07:24:32;;;;;;;30.17;12.90;;;10.00;99.90;;;;;;5069458;28;20091;-74
2023/02/12 07:26:57;;;;;;;25.33;12.98;;;10.00;99.90;;;;;;5069282;28;20439;-75
2023/02/12 07:29:23;;;;;;;26.70;12.40;;;9.90;99.90;;;;;;5070228;28;20045;-74
2023/02/12 07:31:49;;;;;;;32.67;13.55;;;10.00;99.90;;;;;;5069680;28;20457;-74
2023/02/12 07:34:14;;;;;;;27.85;12.35;;;10.00;99.90;;;;;;5071324;28;20467;-74
2023/02/12 07:36:41;;;;;;;27.35;11.85;;;9.90;99.90;;;;;;5069596;28;20031;-73
2023/02/12 07:39:06;;;;;;;29.85;13.45;;;10.10;99.90;;;;;;5072778;28;20028;-74
2023/02/12 07:41:34;;;;;;;31.42;12.52;;;9.80;99.90;;;;;;5073222;28;20032;-74
2023/02/12 07:44:06;;;;;;;;;;;9.60;99.90;;;;;;5073672;28;20029;-75
2023/02/12 07:46:42;;;;;;;27.15;13.52;;;9.70;99.90;;;;;;5073995;28;19995;-75
2023/02/12 07:49:12;;;;;;;31.70;13.55;;;9.70;99.90;;;;;;5073328;28;20075;-73
2023/02/12 07:51:39;;;;;;;31.77;13.15;;;9.70;99.90;;;;;;5074355;28;20028;-72
2023/02/12 07:54:05;;;;;;;30.50;12.32;;;9.80;99.90;;;;;;5073914;28;20125;-74
2023/02/12 07:56:34;;;;;;;31.52;13.27;;;9.80;99.90;;;;;;5072464;28;20036;-74
2023/02/12 07:59:02;;;;;;;28.10;12.88;;;9.80;99.90;;;;;;5073674;28;20363;-73
2023/02/12 08:01:33;;;;;;;30.17;12.18;;;9.90;99.90;;;;;;5074075;28;20017;-73
2023/02/12 08:04:02;;;;;;;30.27;12.82;;;9.70;99.90;;;;;;5073726;28;20056;-73
2023/02/12 08:06:31;;;;;;;31.02;14.13;;;9.80;99.90;;;;;;5073725;28;20115;-74
2023/02/12 08:08:58;;;;;;;31.33;13.32;;;9.90;99.90;;;;;;5073343;28;20055;-74
2023/02/12 08:11:25;;;;;;;29.65;13.02;;;9.90;99.90;;;;;;5073456;28;20298;-72
2023/02/12 08:13:51;;;;;;;30.02;13.68;;;9.90;99.90;;;;;;5073118;28;20272;-74
2023/02/12 08:16:20;;;;;;;34.30;14.57;;;9.90;99.90;;;;;;5072732;28;20031;-73
2023/02/12 08:18:46;;;;;;;37.75;15.88;;;10.00;99.90;;;;;;5072230;28;20047;-73
2023/02/12 08:21:14;;;;;;;37.38;16.20;;;10.00;99.90;;;;;;5062593;28;20474;-74
2023/02/12 08:23:41;;;;;;;38.35;14.82;;;9.80;99.90;;;;;;5053162;28;20048;-74
2023/02/12 08:26:11;;;;;;;36.33;15.75;;;9.80;99.90;;;;;;5053239;28;20037;-74
2023/02/12 08:28:38;;;;;;;44.60;17.00;;;9.80;99.90;;;;;;5052962;28;20045;-74
2023/02/12 08:31:08;;;;;;;37.22;16.65;;;10.00;99.90;;;;;;5053570;28;20020;-76
2023/02/12 08:33:34;;;;;;;33.72;15.63;;;10.00;99.90;;;;;;5053036;28;20056;-74
2023/02/12 08:36:05;;;;;;;40.22;17.40;;;10.00;99.90;;;;;;5052124;28;20112;-75
2023/02/12 08:38:32;;;;;;;34.90;16.00;;;9.90;99.90;;;;;;5052717;28;20120;-73
2023/02/12 08:41:19;;;;;;;41.40;14.93;;;10.00;99.90;;;;;;5051782;28;20037;-74
2023/02/12 08:43:44;;;;;;;42.25;16.80;;;9.90;99.90;;;;;;5052972;28;20420;-77
2023/02/12 08:46:13;;;;;;;37.28;14.25;;;9.90;99.90;;;;;;5053346;28;20104;-75
2023/02/12 08:48:40;;;;;;;37.40;14.82;;;10.00;99.90;;;;;;5052293;28;20044;-74
2023/02/12 08:51:19;;;;;;;38.67;15.65;;;10.10;99.90;;;;;;5051659;28;20037;-71
2023/02/12 08:53:47;;;;;;;38.28;15.93;;;10.00;99.90;;;;;;5052546;28;20037;-71
2023/02/12 08:56:14;;;;;;;;;;;10.10;99.90;;;;;;5053240;28;20401;-73
2023/02/12 08:58:41;;;;;;;41.47;16.25;;;9.90;99.90;;;;;;5052454;28;19904;-75
2023/02/12 09:01:12;;;;;;;37.50;15.20;;;9.90;99.90;;;;;;5052902;28;20028;-73
2023/02/12 09:03:38;;;;;;;45.85;16.35;;;10.00;99.90;;;;;;5052332;28;20033;-74
2023/02/12 09:06:06;;;;;;;39.63;16.00;;;10.00;99.90;;;;;;5051839;28;20098;-71
2023/02/12 09:08:32;;;;;;;37.70;16.42;;;10.10;99.90;;;;;;5052393;28;20064;-74
2023/02/12 09:10:58;;;;;;;42.78;15.20;;;10.10;99.90;;;;;;5052344;28;20061;-75
2023/02/12 09:13:24;;;;;;;44.63;16.50;;;10.10;99.90;;;;;;5052600;28;20458;-75
2023/02/12 09:15:50;;;;;;;42.10;16.05;;;10.10;99.90;;;;;;5052315;28;20039;-74
2023/02/12 09:18:16;;;;;;;38.25;15.07;;;10.10;99.90;;;;;;5052360;28;20029;-74
2023/02/12 09:20:43;;;;;;;42.38;15.27;;;10.20;99.90;;;;;;5060975;28;20043;-72
2023/02/12 09:23:11;;;;;;;44.08;17.40;;;10.20;99.90;;;;;;5071056;28;20523;-73
2023/02/12 09:25:44;;;;;;;49.65;16.13;;;10.40;99.90;;;;;;5072088;28;20059;-75
2023/02/12 09:28:12;;;;;;;44.22;15.75;;;10.40;99.90;;;;;;5072416;28;20047;-74
2023/02/12 09:30:39;;;;;;;42.25;16.20;;;10.40;99.90;;;;;;5072249;28;20043;-75
2023/02/12 09:33:05;;;;;;;45.95;16.58;;;10.40;99.90;;;;;;5071922;28;20132;-75
2023/02/12 09:35:34;;;;;;;46.40;17.25;;;10.30;99.90;;;;;;5072321;28;20033;-75
2023/02/12 09:38:00;;;;;;;43.80;16.38;;;10.20;99.90;;;;;;5070615;28;20462;-75
2023/02/12 09:40:49;;;;;;;42.08;16.05;;;10.30;99.90;;;;;;5072313;28;20068;-74
2023/02/12 09:43:17;;;;;;;35.20;13.82;;;10.30;99.90;;;;;;5071895;28;20466;-73
2023/02/12 09:46:15;;;;;;;32.65;13.50;;;10.30;99.90;;;;;;5071963;28;20024;-73
2023/02/12 09:48:46;;;;;;;30.50;13.27;;;10.30;99.90;;;;;;5049435;28;20491;-73
2023/02/12 09:51:12;;;;;;;32.67;13.45;;;10.20;99.90;;;;;;5071743;28;20119;-73
2023/02/12 09:53:42;;;;;;;31.85;12.88;;;10.20;99.90;;;;;;5071546;28;20035;-73
2023/02/12 09:56:19;;;;;;;29.55;12.70;;;10.30;99.90;;;;;;5070453;28;20036;-74
2023/02/12 09:58:54;;;;;;;31.02;13.05;;;10.20;99.90;;;;;;5072024;28;20471;-72
2023/02/12 10:01:21;;;;;;;25.65;12.32;;;10.20;99.90;;;;;;5070315;28;20025;-72
2023/02/12 10:03:50;;;;;;;23.52;12.15;;;10.30;99.90;;;;;;5071723;28;20056;-72
2023/02/12 10:06:23;;;;;;;25.25;12.48;;;10.30;99.90;;;;;;5070756;28;20045;-73
2023/02/12 10:09:16;;;;;;;25.80;12.00;;;10.40;99.90;;;;;;5071317;28;20121;-73
2023/02/12 10:12:05;;;;;;;24.98;12.68;;;10.20;99.90;;;;;;5071499;28;20025;-73
2023/02/12 10:14:54;;;;;;;24.77;13.00;;;10.20;99.90;;;;;;5071368;28;20458;-73
2023/02/12 10:17:25;;;;;;;27.73;13.10;;;10.50;99.90;;;;;;5070116;28;20041;-74
2023/02/12 10:20:06;;;;;;;26.15;11.82;;;10.50;99.90;;;;;;5071586;28;20115;-74
2023/02/12 10:22:45;;;;;;;26.17;13.38;;;10.50;99.90;;;;;;5071519;28;20059;-74
2023/02/12 10:25:35;;;;;;;30.60;14.77;;;10.50;99.90;;;;;;5071348;28;20351;-75
2023/02/12 10:28:10;;;;;;;24.48;12.30;;;10.50;99.90;;;;;;5071234;28;20060;-76
2023/02/12 10:30:44;;;;;;;27.15;14.05;;;10.20;99.90;;;;;;5076350;28;20033;-70
2023/02/12 10:33:16;;;;;;;31.40;14.27;;;10.40;99.90;;;;;;5071435;28;20370;-73
2023/02/12 10:35:48;;;;;;;29.30;15.25;;;10.40;99.90;;;;;;5072711;28;20028;-73
2023/02/12 10:38:19;;;;;;;23.50;11.98;;;10.50;99.90;;;;;;5071896;28;20370;-75
2023/02/12 10:40:45;;;;;;;20.77;11.40;;;10.50;99.90;;;;;;5071065;28;20481;-74
2023/02/12 10:43:12;;;;;;;19.98;11.73;;;10.60;99.90;;;;;;5072208;28;20028;-74
2023/02/12 10:45:40;;;;;;;21.10;11.27;;;10.70;99.90;;;;;;5072276;28;20029;-75
2023/02/12 10:48:08;;;;;;;;;;;10.60;99.90;;;;;;5071254;28;20044;-76
2023/02/12 10:50:45;;;;;;;;;;;10.60;99.90;;;;;;5070902;28;19920;-76
2023/02/12 10:53:23;;;;;;;26.15;13.05;;;10.70;99.90;;;;;;5069953;28;19969;-77
2023/02/12 10:56:02;;;;;;;21.13;12.05;;;10.60;99.90;;;;;;5069893;28;20375;-75
2023/02/12 10:58:28;;;;;;;21.90;12.77;;;10.60;99.90;;;;;;5071205;28;20054;-75
2023/02/12 11:00:59;;;;;;;22.38;13.52;;;10.80;99.90;;;;;;5070886;28;20056;-74
2023/02/12 11:03:37;;;;;;;20.27;13.00;;;10.90;99.90;;;;;;5071060;28;20524;-75
2023/02/12 11:06:20;;;;;;;23.85;13.52;;;11.00;99.90;;;;;;5070963;28;20032;-74
2023/02/12 11:08:47;;;;;;;20.25;12.70;;;10.80;99.90;;;;;;5071288;28;20036;-75
2023/02/12 11:11:24;;;;;;;23.10;12.40;;;10.90;99.90;;;;;;5070315;28;20032;-76
2023/02/12 11:13:59;;;;;;;18.97;10.67;;;11.00;99.90;;;;;;5073836;28;20025;-75
2023/02/12 11:16:37;;;;;;;20.75;10.88;;;11.00;99.90;;;;;;5075520;28;20405;-75
2023/02/12 11:19:18;;;;;;;18.88;9.75;;;11.20;99.90;;;;;;5073603;28;20071;-75
2023/02/12 11:21:44;;;;;;;18.35;10.85;;;11.40;99.90;;;;;;5074570;28;20024;-74
2023/02/12 11:24:24;;;;;;;16.58;9.57;;;11.30;99.90;;;;;;5074611;28;20417;-73
2023/02/12 11:26:50;;;;;;;15.38;9.15;;;11.20;99.90;;;;;;5075757;28;20063;-71
2023/02/12 11:29:24;;;;;;;15.82;9.20;;;11.10;99.90;;;;;;5074425;28;20466;-72
2023/02/12 11:32:07;;;;;;;13.98;8.35;;;11.00;99.90;;;;;;5074392;28;20102;-72
2023/02/12 11:34:33;;;;;;;13.95;8.13;;;11.10;99.90;;;;;;5074014;28;20088;-73
2023/02/12 11:37:00;;;;;;;17.70;8.60;;;11.10;99.90;;;;;;5074789;28;20095;-74
2023/02/12 11:39:29;;;;;;;15.82;9.18;;;11.20;99.90;;;;;;5074149;28;20024;-73
2023/02/12 11:42:14;;;;;;;14.60;8.05;;;11.20;99.90;;;;;;5073103;28;20028;-72
2023/02/12 11:44:42;;;;;;;16.75;8.75;;;11.30;99.90;;;;;;5074088;28;20089;-72
2023/02/12 11:47:15;;;;;;;13.25;7.82;;;11.30;99.90;;;;;;5074593;28;20051;-72
2023/02/12 11:50:20;;;;;;;14.93;8.23;;;11.30;99.90;;;;;;5074393;28;20070;-73
2023/02/12 11:52:49;;;;;;;12.75;7.72;;;11.20;99.90;;;;;;5071064;28;20057;-73
2023/02/12 11:55:23;;;;;;;13.82;8.05;;;11.20;99.90;;;;;;5073197;28;20021;-72
2023/02/12 11:57:51;;;;;;;14.07;8.38;;;11.10;99.90;;;;;;5073833;28;20355;-73
2023/02/12 12:00:31;;;;;;;13.40;7.65;;;11.20;99.90;;;;;;5072660;28;20029;-71
2023/02/12 12:03:10;;;;;;;12.82;7.57;;;11.00;99.90;;;;;;5073786;28;20024;-72
2023/02/12 12:05:43;;;;;;;14.20;8.23;;;11.10;99.90;;;;;;5075240;28;20029;-72
2023/02/12 12:08:22;;;;;;;13.60;7.60;;;11.10;99.90;;;;;;5073826;28;20374;-72
2023/02/12 12:10:57;;;;;;;13.93;8.80;;;11.20;99.90;;;;;;5073505;28;20021;-72
2023/02/12 12:13:30;;;;;;;15.75;8.18;;;11.20;99.90;;;;;;5074196;28;20111;-72
2023/02/12 12:22:04;;;;;;;19.80;10.98;;;11.20;99.90;;;;;;5073732;28;20482;-72
2023/02/12 12:24:41;;;;;;;19.23;11.60;;;11.20;99.90;;;;;;5073437;28;20424;-72
2023/02/12 12:30:45;;;;;;;23.70;12.70;;;11.20;99.90;;;;;;5073286;28;20543;-71
2023/02/12 12:33:50;;;;;;;26.00;15.35;;;11.10;99.90;;;;;;5072860;28;20045;-72
2023/02/12 12:36:49;;;;;;;28.50;15.10;;;11.00;99.90;;;;;;5072816;28;20447;-72
2023/02/12 12:39:38;;;;;;;28.73;14.80;;;11.10;99.90;;;;;;5072753;28;20024;-72
2023/02/12 12:42:40;;;;;;;30.75;15.10;;;11.00;99.90;;;;;;5073144;28;20536;-72
2023/02/12 12:45:19;;;;;;;29.75;16.27;;;11.10;99.90;;;;;;5071774;28;20039;-73
2023/02/12 12:47:58;;;;;;;31.75;16.10;;;11.10;99.90;;;;;;5071701;28;20052;-73
2023/02/12 12:50:42;;;;;;;30.30;16.52;;;11.00;99.90;;;;;;5072899;28;20055;-73
2023/02/12 12:53:29;;;;;;;27.63;16.25;;;11.10;99.90;;;;;;5072556;28;20119;-72
2023/02/12 12:56:16;;;;;;;29.38;15.68;;;11.20;99.90;;;;;;5072536;28;20473;-72
2023/02/12 12:59:12;;;;;;;29.52;15.90;;;11.20;99.90;;;;;;5072637;28;20023;-72
2023/02/12 13:01:48;;;;;;;27.25;15.63;;;11.10;99.90;;;;;;5072821;28;20021;-72
2023/02/12 13:04:46;;;;;;;27.25;14.57;;;11.10;99.90;;;;;;5073622;28;20037;-74
2023/02/12 13:07:23;;;;;;;27.10;15.45;;;11.10;99.90;;;;;;5072508;28;20033;-72
2023/02/12 13:10:14;;;;;;;26.60;15.20;;;11.20;99.90;;;;;;5071319;28;20111;-74
2023/02/12 13:12:53;;;;;;;27.58;16.02;;;11.30;99.90;;;;;;5072638;28;20262;-71